Weather at Tirana International Airport Mother Teresa

Public forecast

Using degrees Celsius for public forecast. Weather courtesy of forecast.io.

Current aviation weather report (METAR) for Tirana International Airport Mother Teresa

Report is more than 6 hours old.

Retrieved 2022/09/17 18:50 UTC (13 days ago):

LATI 171850Z 14007KT 100V170 9999 -RA BKN066 24/19 Q1003 NOSIG

Aviation forecast (TAF) for Tirana International Airport Mother Teresa

Forecast is more than 12 hours old.

Retrieved 2022/09/17 18:36 UTC (13 days ago):

TAF LATI 171700Z 1718/1818 18010KT 9999 SCT040 BKN080 TX24/1718Z TN15/1804Z PROB40 TEMPO 1719/1722 VRB10G20KT TSRA SCT020CB BECMG 1720/1722 32010KT BECMG 1808/1810 CAVOK